ACA540 LGSR-LICA
Flight info
| Callsign | ACA540 |
|---|---|
| Flight time | 1h 24m |
| Altitude | 24000 |
| Route | NETIS M601 RUTOM/N0361F180 M601 CRN |
| Aircraft | B738/M-SDE2E3FGHIRWXY/LB1 |
Departure
| Time | 2026-04-21 23:29 |
|---|---|
| Airport | Santorini International Airport (LGSR) |
Arrival
| Time | 2026-04-22 00:53 |
|---|---|
| Airport | Lamezia Terme Sant'Eufemia International Airport (LICA) |
| Time | Latitude | Longitude | Altitude | Speed | Heading |
|---|---|---|---|---|---|
| 2026-04-21 23:11 | 36.40403 | 25.47372 | 118 ft | 0 kts | 77° |
| 2026-04-21 23:26 | 36.40405 | 25.47385 | 115 ft | 8 kts | 77° |
| 2026-04-21 23:26 | 36.40423 | 25.47460 | 117 ft | 9 kts | 64° |
| 2026-04-21 23:26 | 36.40466 | 25.47485 | 119 ft | 7 kts | 351° |
| 2026-04-21 23:27 | 36.40525 | 25.47465 | 118 ft | 14 kts | 341° |
| 2026-04-21 23:27 | 36.40643 | 25.47409 | 126 ft | 19 kts | 339° |
| 2026-04-21 23:27 | 36.40762 | 25.47353 | 130 ft | 18 kts | 339° |
| 2026-04-21 23:27 | 36.40836 | 25.47381 | 134 ft | 0 kts | 58° |
| 2026-04-21 23:28 | 36.40839 | 25.47390 | 135 ft | 0 kts | 68° |
| 2026-04-21 23:28 | 36.40848 | 25.47447 | 132 ft | 16 kts | 94° |
| 2026-04-21 23:28 | 36.40651 | 25.47577 | 119 ft | 67 kts | 162° |
| 2026-04-21 23:29 | 36.39973 | 25.47890 | 100 ft | 139 kts | 159° |
| 2026-04-21 23:29 | 36.38909 | 25.48362 | 396 ft | 167 kts | 162° |
| 2026-04-21 23:29 | 36.37863 | 25.48976 | 1099 ft | 178 kts | 160° |
| 2026-04-21 23:29 | 36.36639 | 25.49767 | 1261 ft | 212 kts | 154° |
| 2026-04-21 23:30 | 36.35400 | 25.50736 | 2145 ft | 216 kts | 152° |
| 2026-04-21 23:30 | 36.34094 | 25.51746 | 2667 ft | 226 kts | 152° |
| 2026-04-21 23:30 | 36.32744 | 25.52759 | 3201 ft | 228 kts | 153° |
| 2026-04-21 23:30 | 36.31385 | 25.53761 | 3695 ft | 228 kts | 153° |
| 2026-04-21 23:31 | 36.30002 | 25.54768 | 4127 ft | 232 kts | 153° |
| 2026-04-21 23:31 | 36.28649 | 25.55859 | 4587 ft | 236 kts | 141° |
| 2026-04-21 23:31 | 36.27606 | 25.57447 | 5013 ft | 241 kts | 118° |
| 2026-04-21 23:31 | 36.27108 | 25.59399 | 5558 ft | 238 kts | 95° |
| 2026-04-21 23:32 | 36.27246 | 25.61439 | 5932 ft | 240 kts | 69° |
| 2026-04-21 23:32 | 36.28015 | 25.63196 | 6424 ft | 236 kts | 48° |
| 2026-04-21 23:32 | 36.29194 | 25.64644 | 6665 ft | 246 kts | 37° |
| 2026-04-21 23:32 | 36.30635 | 25.65866 | 6872 ft | 256 kts | 27° |
| 2026-04-21 23:33 | 36.32227 | 25.66879 | 7256 ft | 258 kts | 22° |
| 2026-04-21 23:33 | 36.33894 | 25.67730 | 7686 ft | 259 kts | 16° |
| 2026-04-21 23:33 | 36.35669 | 25.68383 | 8111 ft | 261 kts | 10° |
| 2026-04-21 23:33 | 36.39257 | 25.68940 | 9007 ft | 261 kts | 357° |
| 2026-04-21 23:34 | 36.42877 | 25.68514 | 9837 ft | 263 kts | 345° |
| 2026-04-21 23:34 | 36.46341 | 25.67118 | 10649 ft | 261 kts | 332° |
| 2026-04-21 23:34 | 36.49465 | 25.64828 | 11473 ft | 262 kts | 320° |
| 2026-04-21 23:34 | 36.52127 | 25.61734 | 12588 ft | 261 kts | 308° |
| 2026-04-21 23:35 | 36.54176 | 25.58007 | 13731 ft | 262 kts | 296° |
| 2026-04-21 23:35 | 36.55527 | 25.53811 | 14795 ft | 263 kts | 285° |
| 2026-04-21 23:35 | 36.56120 | 25.49297 | 15842 ft | 267 kts | 274° |
| 2026-04-21 23:35 | 36.55895 | 25.44664 | 16888 ft | 272 kts | 262° |
| 2026-04-21 23:36 | 36.54811 | 25.40098 | 17919 ft | 279 kts | 250° |
| 2026-04-21 23:36 | 36.52853 | 25.35845 | 18829 ft | 289 kts | 238° |
| 2026-04-21 23:36 | 36.50595 | 25.31744 | 19619 ft | 285 kts | 263° |
| 2026-04-21 23:36 | 36.51567 | 25.27177 | 20437 ft | 282 kts | 304° |
| 2026-04-21 23:37 | 36.53971 | 25.23266 | 21264 ft | 287 kts | 307° |
| 2026-04-21 23:37 | 36.56430 | 25.19323 | 22118 ft | 290 kts | 306° |
| 2026-04-21 23:37 | 36.57689 | 25.17276 | 22547 ft | 292 kts | 306° |
| 2026-04-21 23:37 | 36.58904 | 25.15284 | 22947 ft | 294 kts | 306° |
| 2026-04-21 23:38 | 36.60142 | 25.13247 | 23356 ft | 296 kts | 306° |
| 2026-04-21 23:38 | 36.61384 | 25.11195 | 23728 ft | 298 kts | 306° |
| 2026-04-21 23:38 | 36.62633 | 25.09128 | 24068 ft | 299 kts | 306° |
| 2026-04-21 23:38 | 36.63885 | 25.07055 | 24403 ft | 301 kts | 306° |
| 2026-04-21 23:39 | 36.65144 | 25.04967 | 24743 ft | 302 kts | 306° |
| 2026-04-21 23:39 | 36.66410 | 25.02867 | 25081 ft | 304 kts | 306° |
| 2026-04-21 23:39 | 36.67686 | 25.00748 | 25337 ft | 308 kts | 306° |
| 2026-04-21 23:39 | 36.68983 | 24.98592 | 25483 ft | 316 kts | 306° |
| 2026-04-21 23:40 | 36.70141 | 24.96219 | 25526 ft | 326 kts | 291° |
| 2026-04-21 23:40 | 36.70699 | 24.93439 | 25617 ft | 337 kts | 281° |
| 2026-04-21 23:40 | 36.71020 | 24.90501 | 25681 ft | 347 kts | 278° |
| 2026-04-21 23:40 | 36.71302 | 24.87462 | 25752 ft | 357 kts | 278° |
| 2026-04-21 23:41 | 36.71587 | 24.84343 | 25817 ft | 367 kts | 278° |
| 2026-04-21 23:41 | 36.71887 | 24.81145 | 25877 ft | 376 kts | 278° |
| 2026-04-21 23:41 | 36.72206 | 24.77865 | 25939 ft | 386 kts | 278° |
| 2026-04-21 23:41 | 36.72538 | 24.74513 | 25996 ft | 394 kts | 278° |
| 2026-04-21 23:42 | 36.72882 | 24.71085 | 26051 ft | 403 kts | 278° |
| 2026-04-21 23:42 | 36.73234 | 24.67583 | 26101 ft | 411 kts | 278° |
| 2026-04-21 23:42 | 36.73592 | 24.64017 | 26165 ft | 418 kts | 278° |
| 2026-04-21 23:42 | 36.73955 | 24.60403 | 26341 ft | 422 kts | 278° |
| 2026-04-21 23:43 | 36.74317 | 24.56773 | 26653 ft | 422 kts | 278° |
| 2026-04-21 23:43 | 36.74712 | 24.53152 | 26968 ft | 422 kts | 282° |
| 2026-04-21 23:43 | 36.75436 | 24.49602 | 27228 ft | 423 kts | 290° |
| 2026-04-21 23:43 | 36.76497 | 24.46182 | 27469 ft | 424 kts | 292° |
| 2026-04-21 23:44 | 36.77593 | 24.42759 | 27717 ft | 426 kts | 292° |
| 2026-04-21 23:44 | 36.78688 | 24.39324 | 27963 ft | 427 kts | 292° |
| 2026-04-21 23:44 | 36.79780 | 24.35867 | 28209 ft | 429 kts | 292° |
| 2026-04-21 23:44 | 36.80851 | 24.32447 | 28496 ft | 429 kts | 292° |
| 2026-04-21 23:45 | 36.81928 | 24.28982 | 28867 ft | 427 kts | 291° |
| 2026-04-21 23:45 | 36.84057 | 24.22100 | 29617 ft | 424 kts | 291° |
| 2026-04-21 23:45 | 36.85115 | 24.18670 | 29935 ft | 423 kts | 291° |
| 2026-04-21 23:46 | 36.86170 | 24.15245 | 30219 ft | 422 kts | 291° |
| 2026-04-21 23:46 | 36.87222 | 24.11829 | 30526 ft | 420 kts | 291° |
| 2026-04-21 23:46 | 36.88266 | 24.08436 | 30853 ft | 418 kts | 291° |
| 2026-04-21 23:46 | 36.89307 | 24.05050 | 31147 ft | 416 kts | 291° |
| 2026-04-21 23:47 | 36.90341 | 24.01681 | 31421 ft | 415 kts | 291° |
| 2026-04-21 23:47 | 36.91373 | 23.98317 | 31704 ft | 413 kts | 291° |
| 2026-04-21 23:47 | 36.92400 | 23.94972 | 32010 ft | 411 kts | 292° |
| 2026-04-21 23:47 | 36.93425 | 23.91641 | 32284 ft | 410 kts | 292° |
| 2026-04-21 23:48 | 36.94445 | 23.88322 | 32527 ft | 409 kts | 292° |
| 2026-04-21 23:48 | 36.95463 | 23.85004 | 32772 ft | 408 kts | 292° |
| 2026-04-21 23:48 | 36.96476 | 23.81700 | 33029 ft | 407 kts | 292° |
| 2026-04-21 23:48 | 36.97486 | 23.78399 | 33226 ft | 407 kts | 292° |
| 2026-04-21 23:49 | 36.98497 | 23.75093 | 33401 ft | 407 kts | 292° |
| 2026-04-21 23:49 | 36.99505 | 23.71791 | 33610 ft | 406 kts | 292° |
| 2026-04-21 23:49 | 37.00511 | 23.68492 | 33872 ft | 404 kts | 292° |
| 2026-04-21 23:50 | 37.02519 | 23.61895 | 33954 ft | 406 kts | 292° |
| 2026-04-21 23:50 | 37.04521 | 23.55303 | 33952 ft | 404 kts | 291° |
| 2026-04-21 23:51 | 37.06506 | 23.48749 | 33949 ft | 401 kts | 291° |
| 2026-04-21 23:51 | 37.08475 | 23.42235 | 33952 ft | 399 kts | 291° |
| 2026-04-21 23:52 | 37.10433 | 23.35741 | 33954 ft | 398 kts | 291° |
| 2026-04-21 23:52 | 37.12387 | 23.29249 | 33957 ft | 398 kts | 291° |
| 2026-04-21 23:53 | 37.14333 | 23.22747 | 33958 ft | 399 kts | 291° |
| 2026-04-21 23:53 | 37.16276 | 23.16228 | 33962 ft | 400 kts | 291° |
| 2026-04-21 23:54 | 37.18222 | 23.09681 | 33962 ft | 401 kts | 291° |
| 2026-04-21 23:54 | 37.20157 | 23.03160 | 33959 ft | 402 kts | 291° |
| 2026-04-21 23:55 | 37.22109 | 22.96570 | 33963 ft | 403 kts | 291° |
| 2026-04-21 23:55 | 37.24057 | 22.89973 | 33969 ft | 403 kts | 291° |
| 2026-04-21 23:56 | 37.26002 | 22.83370 | 33981 ft | 403 kts | 291° |
| 2026-04-21 23:56 | 37.27946 | 22.76758 | 33979 ft | 403 kts | 291° |
| 2026-04-21 23:57 | 37.29881 | 22.70158 | 33992 ft | 402 kts | 291° |
| 2026-04-21 23:57 | 37.31803 | 22.63587 | 33985 ft | 399 kts | 291° |
| 2026-04-21 23:58 | 37.33711 | 22.57049 | 34009 ft | 398 kts | 291° |
| 2026-04-21 23:58 | 37.35607 | 22.50535 | 34008 ft | 396 kts | 291° |
| 2026-04-21 23:59 | 37.37480 | 22.44088 | 34018 ft | 394 kts | 291° |
| 2026-04-21 23:59 | 37.39355 | 22.37618 | 34018 ft | 393 kts | 291° |
| 2026-04-22 00:00 | 37.41424 | 22.31287 | 34026 ft | 391 kts | 296° |
| 2026-04-22 00:00 | 37.43863 | 22.25182 | 34044 ft | 390 kts | 297° |
| 2026-04-22 00:01 | 37.46312 | 22.19072 | 34030 ft | 391 kts | 296° |
| 2026-04-22 00:01 | 37.48748 | 22.12948 | 34027 ft | 392 kts | 296° |
| 2026-04-22 00:02 | 37.51178 | 22.06801 | 34042 ft | 393 kts | 296° |
| 2026-04-22 00:02 | 37.53611 | 22.00627 | 34045 ft | 393 kts | 296° |
| 2026-04-22 00:03 | 37.55632 | 21.95491 | 34038 ft | 394 kts | 296° |
| 2026-04-22 00:03 | 37.58069 | 21.89283 | 34041 ft | 396 kts | 296° |
| 2026-04-22 00:04 | 37.60512 | 21.83049 | 34040 ft | 396 kts | 296° |
| 2026-04-22 00:04 | 37.62952 | 21.76810 | 34030 ft | 397 kts | 296° |
| 2026-04-22 00:05 | 37.65388 | 21.70566 | 34028 ft | 397 kts | 296° |
| 2026-04-22 00:05 | 37.67807 | 21.64355 | 34023 ft | 396 kts | 296° |
| 2026-04-22 00:06 | 37.70248 | 21.58076 | 34011 ft | 395 kts | 296° |
| 2026-04-22 00:06 | 37.72649 | 21.51887 | 34011 ft | 394 kts | 296° |
| 2026-04-22 00:07 | 37.75057 | 21.45667 | 34006 ft | 394 kts | 296° |
| 2026-04-22 00:07 | 37.77457 | 21.39456 | 33997 ft | 393 kts | 296° |
| 2026-04-22 00:08 | 37.79853 | 21.33245 | 33999 ft | 393 kts | 296° |
| 2026-04-22 00:08 | 37.82242 | 21.27034 | 33994 ft | 393 kts | 296° |
| 2026-04-22 00:09 | 37.84629 | 21.20821 | 33995 ft | 393 kts | 296° |
| 2026-04-22 00:09 | 37.87010 | 21.14609 | 33996 ft | 392 kts | 296° |
| 2026-04-22 00:10 | 37.89388 | 21.08390 | 33990 ft | 393 kts | 295° |
| 2026-04-22 00:10 | 37.91765 | 21.02166 | 34000 ft | 393 kts | 295° |
| 2026-04-22 00:11 | 37.94140 | 20.95931 | 34001 ft | 393 kts | 295° |
| 2026-04-22 00:11 | 37.96512 | 20.89691 | 34004 ft | 393 kts | 295° |
| 2026-04-22 00:12 | 37.98884 | 20.83439 | 34000 ft | 393 kts | 295° |
| 2026-04-22 00:12 | 38.01236 | 20.77228 | 34002 ft | 394 kts | 295° |
| 2026-04-22 00:13 | 38.03602 | 20.70965 | 34002 ft | 394 kts | 295° |
| 2026-04-22 00:13 | 38.05966 | 20.64696 | 34000 ft | 394 kts | 295° |
| 2026-04-22 00:14 | 38.08330 | 20.58414 | 34004 ft | 394 kts | 295° |
| 2026-04-22 00:14 | 38.10688 | 20.52137 | 33999 ft | 394 kts | 295° |
| 2026-04-22 00:15 | 38.12693 | 20.45658 | 34006 ft | 394 kts | 290° |
| 2026-04-22 00:15 | 38.14488 | 20.39076 | 33998 ft | 394 kts | 289° |
| 2026-04-22 00:16 | 38.16286 | 20.32487 | 33994 ft | 394 kts | 289° |
| 2026-04-22 00:16 | 38.18090 | 20.25907 | 33992 ft | 394 kts | 290° |
| 2026-04-22 00:17 | 38.19892 | 20.19338 | 33994 ft | 394 kts | 289° |
| 2026-04-22 00:17 | 38.21691 | 20.12767 | 33992 ft | 393 kts | 289° |
| 2026-04-22 00:18 | 38.23486 | 20.06192 | 33986 ft | 393 kts | 289° |
| 2026-04-22 00:18 | 38.25274 | 19.99624 | 33986 ft | 393 kts | 289° |
| 2026-04-22 00:19 | 38.27057 | 19.93060 | 33989 ft | 392 kts | 289° |
| 2026-04-22 00:19 | 38.28835 | 19.86497 | 33983 ft | 392 kts | 289° |
| 2026-04-22 00:20 | 38.30597 | 19.79980 | 33981 ft | 392 kts | 289° |
| 2026-04-22 00:20 | 38.32366 | 19.73417 | 33977 ft | 392 kts | 289° |
| 2026-04-22 00:21 | 38.34127 | 19.66852 | 33979 ft | 392 kts | 289° |
| 2026-04-22 00:21 | 38.35885 | 19.60282 | 33976 ft | 392 kts | 289° |
| 2026-04-22 00:22 | 38.37637 | 19.53713 | 33976 ft | 392 kts | 289° |
| 2026-04-22 00:22 | 38.39386 | 19.47142 | 33973 ft | 392 kts | 289° |
| 2026-04-22 00:23 | 38.41133 | 19.40561 | 33972 ft | 392 kts | 289° |
| 2026-04-22 00:23 | 38.42876 | 19.33979 | 33972 ft | 392 kts | 289° |
| 2026-04-22 00:24 | 38.44615 | 19.27394 | 33968 ft | 392 kts | 289° |
| 2026-04-22 00:24 | 38.46354 | 19.20793 | 33964 ft | 392 kts | 289° |
| 2026-04-22 00:25 | 38.48089 | 19.14187 | 33965 ft | 393 kts | 289° |
| 2026-04-22 00:25 | 38.49821 | 19.07578 | 33961 ft | 393 kts | 289° |
| 2026-04-22 00:26 | 38.51551 | 19.00959 | 33969 ft | 393 kts | 289° |
| 2026-04-22 00:26 | 38.53276 | 18.94342 | 33959 ft | 393 kts | 289° |
| 2026-04-22 00:27 | 38.55000 | 18.87707 | 33957 ft | 393 kts | 289° |
| 2026-04-22 00:27 | 38.56717 | 18.81078 | 33956 ft | 393 kts | 289° |
| 2026-04-22 00:28 | 38.58421 | 18.74488 | 33952 ft | 393 kts | 289° |
| 2026-04-22 00:28 | 38.60139 | 18.67821 | 33951 ft | 392 kts | 289° |
| 2026-04-22 00:28 | 38.60979 | 18.64556 | 33827 ft | 393 kts | 289° |
| 2026-04-22 00:29 | 38.61840 | 18.61207 | 33293 ft | 396 kts | 289° |
| 2026-04-22 00:29 | 38.62697 | 18.57867 | 32681 ft | 395 kts | 289° |
| 2026-04-22 00:29 | 38.63549 | 18.54540 | 32074 ft | 394 kts | 289° |
| 2026-04-22 00:29 | 38.64397 | 18.51225 | 31686 ft | 388 kts | 289° |
| 2026-04-22 00:30 | 38.65234 | 18.47951 | 31199 ft | 386 kts | 288° |
| 2026-04-22 00:30 | 38.66062 | 18.44705 | 30776 ft | 382 kts | 288° |
| 2026-04-22 00:30 | 38.66881 | 18.41490 | 30352 ft | 378 kts | 288° |
| 2026-04-22 00:30 | 38.67693 | 18.38302 | 29915 ft | 375 kts | 288° |
| 2026-04-22 00:31 | 38.68496 | 18.35142 | 29426 ft | 372 kts | 288° |
| 2026-04-22 00:31 | 38.69291 | 18.32011 | 29005 ft | 367 kts | 288° |
| 2026-04-22 00:31 | 38.70076 | 18.28918 | 28564 ft | 363 kts | 288° |
| 2026-04-22 00:31 | 38.70850 | 18.25861 | 28133 ft | 360 kts | 288° |
| 2026-04-22 00:32 | 38.71617 | 18.22829 | 27721 ft | 356 kts | 288° |
| 2026-04-22 00:32 | 38.72377 | 18.19812 | 27038 ft | 359 kts | 288° |
| 2026-04-22 00:32 | 38.73134 | 18.16776 | 26604 ft | 356 kts | 288° |
| 2026-04-22 00:32 | 38.73887 | 18.13752 | 26138 ft | 355 kts | 288° |
| 2026-04-22 00:33 | 38.74633 | 18.10751 | 25724 ft | 352 kts | 288° |
| 2026-04-22 00:33 | 38.75372 | 18.07772 | 25320 ft | 350 kts | 288° |
| 2026-04-22 00:33 | 38.76107 | 18.04813 | 24921 ft | 347 kts | 288° |
| 2026-04-22 00:33 | 38.76836 | 18.01871 | 24523 ft | 345 kts | 288° |
| 2026-04-22 00:34 | 38.77560 | 17.98947 | 24133 ft | 343 kts | 288° |
| 2026-04-22 00:34 | 38.78279 | 17.96040 | 23749 ft | 341 kts | 288° |
| 2026-04-22 00:34 | 38.78994 | 17.93146 | 23323 ft | 340 kts | 287° |
| 2026-04-22 00:34 | 38.79706 | 17.90262 | 22878 ft | 338 kts | 287° |
| 2026-04-22 00:35 | 38.80412 | 17.87396 | 22467 ft | 336 kts | 287° |
| 2026-04-22 00:35 | 38.81102 | 17.84592 | 22101 ft | 332 kts | 288° |
| 2026-04-22 00:35 | 38.81795 | 17.81777 | 21703 ft | 330 kts | 287° |
| 2026-04-22 00:35 | 38.82482 | 17.78982 | 21322 ft | 328 kts | 287° |
| 2026-04-22 00:36 | 38.83163 | 17.76204 | 20951 ft | 326 kts | 287° |
| 2026-04-22 00:36 | 38.83842 | 17.73433 | 20583 ft | 325 kts | 287° |
| 2026-04-22 00:36 | 38.84526 | 17.70641 | 20005 ft | 331 kts | 287° |
| 2026-04-22 00:36 | 38.85219 | 17.67810 | 19610 ft | 335 kts | 287° |
| 2026-04-22 00:37 | 38.85920 | 17.64947 | 19228 ft | 337 kts | 287° |
| 2026-04-22 00:37 | 38.86619 | 17.62084 | 18837 ft | 335 kts | 287° |
| 2026-04-22 00:37 | 38.87314 | 17.59237 | 18468 ft | 333 kts | 287° |
| 2026-04-22 00:37 | 38.88002 | 17.56411 | 18072 ft | 331 kts | 287° |
| 2026-04-22 00:38 | 38.88687 | 17.53599 | 17656 ft | 329 kts | 287° |
| 2026-04-22 00:38 | 38.89364 | 17.50812 | 17291 ft | 325 kts | 287° |
| 2026-04-22 00:38 | 38.90035 | 17.48050 | 16898 ft | 323 kts | 287° |
| 2026-04-22 00:38 | 38.90698 | 17.45315 | 16564 ft | 320 kts | 287° |
| 2026-04-22 00:39 | 38.91355 | 17.42605 | 16192 ft | 317 kts | 287° |
| 2026-04-22 00:39 | 38.92008 | 17.39904 | 15822 ft | 315 kts | 287° |
| 2026-04-22 00:39 | 38.92655 | 17.37228 | 15480 ft | 313 kts | 287° |
| 2026-04-22 00:39 | 38.93297 | 17.34568 | 15134 ft | 311 kts | 287° |
| 2026-04-22 00:40 | 38.93935 | 17.31922 | 14784 ft | 309 kts | 287° |
| 2026-04-22 00:40 | 38.94568 | 17.29296 | 14440 ft | 307 kts | 287° |
| 2026-04-22 00:40 | 38.95198 | 17.26679 | 14083 ft | 306 kts | 287° |
| 2026-04-22 00:40 | 38.95824 | 17.24074 | 13746 ft | 304 kts | 287° |
| 2026-04-22 00:41 | 38.96447 | 17.21480 | 13358 ft | 303 kts | 287° |
| 2026-04-22 00:41 | 38.97067 | 17.18895 | 12991 ft | 302 kts | 287° |
| 2026-04-22 00:41 | 38.97683 | 17.16325 | 12637 ft | 300 kts | 287° |
| 2026-04-22 00:41 | 38.98286 | 17.13805 | 12300 ft | 298 kts | 287° |
| 2026-04-22 00:42 | 38.98894 | 17.11262 | 11944 ft | 297 kts | 287° |
| 2026-04-22 00:42 | 38.99243 | 17.08657 | 11586 ft | 298 kts | 270° |
| 2026-04-22 00:42 | 38.98885 | 17.06030 | 11187 ft | 302 kts | 252° |
| 2026-04-22 00:42 | 38.98093 | 17.03528 | 10853 ft | 302 kts | 249° |
| 2026-04-22 00:43 | 38.97261 | 17.01069 | 10651 ft | 296 kts | 249° |
| 2026-04-22 00:43 | 38.96444 | 16.98671 | 10508 ft | 289 kts | 249° |
| 2026-04-22 00:43 | 38.95650 | 16.96333 | 10380 ft | 282 kts | 249° |
| 2026-04-22 00:43 | 38.94879 | 16.94049 | 10255 ft | 274 kts | 249° |
| 2026-04-22 00:44 | 38.94135 | 16.91832 | 10141 ft | 267 kts | 249° |
| 2026-04-22 00:44 | 38.93409 | 16.89666 | 10035 ft | 261 kts | 249° |
| 2026-04-22 00:44 | 38.92700 | 16.87542 | 9820 ft | 258 kts | 250° |
| 2026-04-22 00:44 | 38.91997 | 16.85427 | 9560 ft | 257 kts | 250° |
| 2026-04-22 00:45 | 38.91288 | 16.83319 | 9259 ft | 257 kts | 249° |
| 2026-04-22 00:45 | 38.90585 | 16.81216 | 8994 ft | 255 kts | 249° |
| 2026-04-22 00:45 | 38.89888 | 16.79126 | 8721 ft | 254 kts | 249° |
| 2026-04-22 00:45 | 38.89193 | 16.77046 | 8453 ft | 252 kts | 249° |
| 2026-04-22 00:46 | 38.88499 | 16.74978 | 8211 ft | 252 kts | 250° |
| 2026-04-22 00:46 | 38.87807 | 16.72900 | 7946 ft | 255 kts | 249° |
| 2026-04-22 00:46 | 38.87103 | 16.70796 | 7650 ft | 257 kts | 249° |
| 2026-04-22 00:46 | 38.86398 | 16.68691 | 7393 ft | 258 kts | 249° |
| 2026-04-22 00:47 | 38.85685 | 16.66568 | 7103 ft | 260 kts | 249° |
| 2026-04-22 00:47 | 38.85055 | 16.64395 | 6819 ft | 260 kts | 256° |
| 2026-04-22 00:47 | 38.84705 | 16.62118 | 6521 ft | 259 kts | 265° |
| 2026-04-22 00:47 | 38.84624 | 16.59812 | 6234 ft | 259 kts | 272° |
| 2026-04-22 00:48 | 38.84764 | 16.57510 | 5944 ft | 259 kts | 279° |
| 2026-04-22 00:48 | 38.85131 | 16.55259 | 5682 ft | 256 kts | 289° |
| 2026-04-22 00:48 | 38.86054 | 16.53372 | 5554 ft | 247 kts | 318° |
| 2026-04-22 00:48 | 38.87523 | 16.52356 | 5384 ft | 239 kts | 344° |
| 2026-04-22 00:49 | 38.89086 | 16.51680 | 4750 ft | 246 kts | 323° |
| 2026-04-22 00:49 | 38.90104 | 16.49974 | 4270 ft | 246 kts | 286° |
| 2026-04-22 00:49 | 38.90037 | 16.47876 | 4164 ft | 235 kts | 252° |
| 2026-04-22 00:49 | 38.89245 | 16.45946 | 3523 ft | 247 kts | 246° |
| 2026-04-22 00:50 | 38.88803 | 16.43843 | 3038 ft | 240 kts | 264° |
| 2026-04-22 00:50 | 38.88682 | 16.41768 | 2857 ft | 227 kts | 270° |
| 2026-04-22 00:50 | 38.88738 | 16.39804 | 2697 ft | 213 kts | 277° |
| 2026-04-22 00:50 | 38.88964 | 16.38011 | 2562 ft | 194 kts | 282° |
| 2026-04-22 00:51 | 38.89151 | 16.36361 | 2448 ft | 179 kts | 278° |
| 2026-04-22 00:51 | 38.89360 | 16.34701 | 1399 ft | 214 kts | 281° |
| 2026-04-22 00:51 | 38.89539 | 16.33481 | 1271 ft | 201 kts | 281° |
| 2026-04-22 00:51 | 38.89779 | 16.31795 | 946 ft | 184 kts | 279° |
| 2026-04-22 00:52 | 38.89861 | 16.30245 | 714 ft | 166 kts | 269° |
| 2026-04-22 00:52 | 38.89947 | 16.28862 | 534 ft | 145 kts | 282° |
| 2026-04-22 00:52 | 38.90130 | 16.27609 | 292 ft | 141 kts | 281° |
| 2026-04-22 00:52 | 38.90302 | 16.26230 | 115 ft | 171 kts | 279° |
| 2026-04-22 00:53 | 38.90472 | 16.24827 | 43 ft | 117 kts | 278° |
| 2026-04-22 00:53 | 38.90566 | 16.24041 | 35 ft | 54 kts | 278° |
| 2026-04-22 00:53 | 38.90633 | 16.23680 | 34 ft | 41 kts | 293° |
| 2026-04-22 00:53 | 38.90784 | 16.23504 | 32 ft | 20 kts | 7° |
| 2026-04-22 00:54 | 38.90830 | 16.23651 | 33 ft | 22 kts | 92° |
| 2026-04-22 00:54 | 38.90806 | 16.23875 | 35 ft | 27 kts | 99° |
| 2026-04-22 00:54 | 38.90778 | 16.24103 | 36 ft | 25 kts | 94° |
| 2026-04-22 00:54 | 38.90860 | 16.24282 | 38 ft | 23 kts | 44° |
| 2026-04-22 00:55 | 38.90881 | 16.24403 | 38 ft | 4 kts | 184° |